Time;durP1;ratioP1;P1;durP2;ratioP2;P2;SDS_P1;SDS_P2;PMS_P1;PMS_P2;Temp;Humidity;BMP_temperature;BMP_pressure;BME280_temperature;BME280_humidity;BME280_pressure;Samples;Min_cycle;Max_cycle;Signal;HPM_P1;HPM_P2
2023/03/15 00:00:35;;;;;;;2.45;0.10;;;;;;;3.37;100.00;100633.63;5044663;28;20029;-49
2023/03/15 00:03:03;;;;;;;1.15;0.10;;;;;;;3.31;100.00;100639.44;5047265;28;20043;-50
2023/03/15 00:05:28;;;;;;;0.25;0.13;;;;;;;3.43;100.00;100643.53;5048273;28;20029;-48
2023/03/15 00:07:53;;;;;;;0.30;0.30;;;;;;;3.53;100.00;100648.78;5046164;28;20478;-48
2023/03/15 00:10:19;;;;;;;0.40;0.25;;;;;;;3.60;100.00;100648.06;5050469;28;20028;-50
2023/03/15 00:12:44;;;;;;;0.57;0.00;;;;;;;3.70;100.00;100656.75;5047533;28;20073;-52
2023/03/15 00:15:13;;;;;;;0.10;0.00;;;;;;;3.70;100.00;100655.91;5047721;28;20025;-49
2023/03/15 00:17:38;;;;;;;0.00;0.00;;;;;;;3.69;100.00;100662.97;5047576;28;20112;-47
2023/03/15 00:20:05;;;;;;;0.15;0.00;;;;;;;3.71;100.00;100678.53;5042929;28;20464;-47
2023/03/15 00:22:30;;;;;;;0.10;0.00;;;;;;;3.79;100.00;100677.84;5050103;28;20505;-47
2023/03/15 00:24:56;;;;;;;1.42;0.00;;;;;;;3.87;100.00;100675.31;5046216;28;20063;-49
2023/03/15 00:27:21;;;;;;;0.13;0.03;;;;;;;3.81;100.00;100671.47;5044397;28;20033;-48
2023/03/15 00:29:46;;;;;;;0.60;0.13;;;;;;;3.84;100.00;100679.06;5043082;28;20398;-52
2023/03/15 00:32:12;;;;;;;0.00;0.00;;;;;;;3.79;100.00;100669.97;5037696;28;20042;-48
2023/03/15 00:34:37;;;;;;;0.20;0.00;;;;;;;3.74;100.00;100678.25;5043220;28;20029;-47
2023/03/15 00:37:02;;;;;;;0.00;0.00;;;;;;;3.72;100.00;100681.03;5052780;28;20112;-53
2023/03/15 00:39:28;;;;;;;0.03;0.00;;;;;;;3.80;100.00;100676.88;5049846;28;20052;-47
2023/03/15 00:41:55;;;;;;;0.20;0.10;;;;;;;3.80;100.00;100687.38;5046156;28;20386;-48
2023/03/15 00:44:24;;;;;;;0.13;0.10;;;;;;;3.81;100.00;100686.41;5050668;28;20036;-49
2023/03/15 00:46:49;;;;;;;0.52;0.38;;;;;;;3.89;100.00;100692.56;5045865;28;20452;-49
2023/03/15 00:49:14;;;;;;;0.30;0.00;;;;;;;4.00;100.00;100686.34;5048777;28;20021;-48
2023/03/15 00:51:40;;;;;;;0.25;0.25;;;;;;;3.98;100.00;100696.16;5050313;28;20489;-48
2023/03/15 00:54:05;;;;;;;1.30;0.00;;;;;;;3.90;100.00;100690.81;5052407;28;20490;-48
2023/03/15 00:56:31;;;;;;;2.70;0.20;;;;;;;3.93;100.00;100693.94;5051155;28;20108;-49
2023/03/15 00:58:57;;;;;;;0.00;0.00;;;;;;;3.95;100.00;100699.06;5039253;28;20063;-50
2023/03/15 01:01:25;;;;;;;0.47;0.00;;;;;;;3.85;100.00;100695.66;5049021;28;20021;-49
2023/03/15 01:03:50;;;;;;;0.00;0.00;;;;;;;3.79;100.00;100691.78;5052354;28;20044;-50
2023/03/15 01:06:22;;;;;;;0.03;0.03;;;;;;;3.61;100.00;100682.97;5045613;28;20025;-51
2023/03/15 01:08:48;;;;;;;0.20;0.00;;;;;;;3.50;100.00;100682.16;5042422;28;20028;-49
2023/03/15 01:11:17;;;;;;;0.05;0.00;;;;;;;3.38;100.00;100690.31;5045822;28;20033;-50
2023/03/15 01:13:42;;;;;;;1.80;0.17;;;;;;;3.42;100.00;100691.69;5046191;28;20052;-50
2023/03/15 01:16:10;;;;;;;2.90;0.00;;;;;;;3.33;100.00;100698.63;5048808;28;20032;-51
2023/03/15 01:18:36;;;;;;;0.00;0.00;;;;;;;3.23;100.00;100696.00;5045936;28;20053;-47
2023/03/15 01:21:05;;;;;;;0.00;0.00;;;;;;;3.23;100.00;100710.91;5044060;28;20060;-48
2023/03/15 01:23:30;;;;;;;2.92;0.00;;;;;;;3.14;100.00;100699.41;5049349;28;20021;-50
2023/03/15 01:26:00;;;;;;;0.20;0.03;;;;;;;3.06;100.00;100707.97;5044593;28;20032;-49
2023/03/15 01:28:25;;;;;;;0.52;0.10;;;;;;;3.01;100.00;100709.34;5054136;28;20090;-47
2023/03/15 01:30:51;;;;;;;0.20;0.00;;;;;;;2.97;100.00;100716.66;5054448;28;20068;-50
2023/03/15 01:33:18;;;;;;;0.20;0.00;;;;;;;2.94;100.00;100713.47;5050820;28;20033;-48
2023/03/15 01:35:43;;;;;;;0.00;0.00;;;;;;;2.89;100.00;100718.28;5042171;28;20425;-50
2023/03/15 01:38:09;;;;;;;0.10;0.00;;;;;;;2.91;100.00;100725.03;5045105;28;20060;-49
2023/03/15 01:40:39;;;;;;;0.10;0.10;;;;;;;2.84;100.00;100731.81;5045739;28;20028;-48
2023/03/15 01:43:04;;;;;;;0.43;0.00;;;;;;;2.87;100.00;100736.78;5051932;28;20500;-52
2023/03/15 01:46:27;;;;;;;0.10;0.10;;;;;;;2.92;100.00;100744.19;5052289;28;20016;-51
2023/03/15 01:49:24;;;;;;;0.10;0.00;;;;;;;2.81;100.00;100742.53;5013704;28;20045;-48
2023/03/15 01:52:16;;;;;;;0.28;0.00;;;;;;;2.70;100.00;100751.31;4981851;28;20525;-52
2023/03/15 01:54:43;;;;;;;2.45;0.00;;;;;;;2.66;100.00;100751.72;5050244;28;20044;-50
2023/03/15 01:57:21;;;;;;;0.10;0.00;;;;;;;2.67;100.00;100751.59;5047603;28;20053;-49
2023/03/15 02:00:04;;;;;;;0.47;0.10;;;;;;;2.55;100.00;100755.25;5041860;28;20037;-51
2023/03/15 02:02:30;;;;;;;0.00;0.00;;;;;;;2.48;100.00;100754.13;5047196;28;20479;-50
2023/03/15 02:05:03;;;;;;;0.80;0.10;;;;;;;2.35;100.00;100763.06;5052367;28;20412;-49
2023/03/15 02:07:33;;;;;;;0.30;0.00;;;;;;;2.38;100.00;100762.78;5049135;28;20410;-48
2023/03/15 02:10:01;;;;;;;0.00;0.00;;;;;;;2.39;100.00;100763.59;5052367;28;20490;-49
2023/03/15 02:12:30;;;;;;;0.28;0.10;;;;;;;2.38;100.00;100757.56;5049172;28;20029;-49
2023/03/15 02:14:59;;;;;;;0.57;0.08;;;;;;;2.35;100.00;100752.59;5044171;28;20029;-47
2023/03/15 02:17:33;;;;;;;1.30;0.20;;;;;;;2.30;100.00;100757.38;5049875;28;20039;-49
2023/03/15 02:19:58;;;;;;;0.10;0.00;;;;;;;2.20;100.00;100763.53;5042832;28;20087;-50
2023/03/15 02:22:46;;;;;;;2.05;1.35;;;;;;;2.21;100.00;100763.38;5052523;28;20033;-50
2023/03/15 02:25:26;;;;;;;0.00;0.00;;;;;;;2.20;100.00;100769.59;5048476;28;20032;-47
2023/03/15 02:27:52;;;;;;;0.57;0.00;;;;;;;2.16;100.00;100758.53;5051376;28;20021;-47
2023/03/15 02:30:18;;;;;;;0.00;0.00;;;;;;;2.09;100.00;100769.63;5049760;28;20505;-48
2023/03/15 02:32:43;;;;;;;0.10;0.00;;;;;;;1.93;100.00;100762.25;5051923;28;20032;-47
2023/03/15 02:35:09;;;;;;;0.00;0.00;;;;;;;1.91;100.00;100772.84;5044006;28;20030;-51
2023/03/15 02:37:34;;;;;;;0.10;0.00;;;;;;;1.83;100.00;100759.56;5049743;28;20450;-49
2023/03/15 02:40:00;;;;;;;0.00;0.00;;;;;;;1.85;100.00;100762.88;5050353;28;20033;-48
2023/03/15 02:42:25;;;;;;;0.00;0.00;;;;;;;1.86;100.00;100764.56;5053026;28;20079;-50
2023/03/15 02:44:53;;;;;;;0.20;0.00;;;;;;;1.85;100.00;100773.34;5050118;28;20389;-50
2023/03/15 02:47:23;;;;;;;0.08;0.00;;;;;;;1.73;100.00;100771.78;5056299;28;20021;-49
2023/03/15 02:49:51;;;;;;;0.00;0.00;;;;;;;1.71;100.00;100769.28;5048699;28;20366;-47
2023/03/15 02:52:21;;;;;;;0.10;0.10;;;;;;;1.75;100.00;100768.03;5060524;28;20032;-51
2023/03/15 02:54:46;;;;;;;0.13;0.00;;;;;;;1.72;100.00;100767.47;5050155;28;20489;-48
2023/03/15 02:57:13;;;;;;;0.13;0.00;;;;;;;1.80;100.00;100774.69;5050499;28;20039;-50
2023/03/15 02:59:40;;;;;;;0.57;0.25;;;;;;;1.79;100.00;100779.09;5042637;28;20035;-49
2023/03/15 03:02:06;;;;;;;0.00;0.00;;;;;;;1.83;100.00;100784.88;5048679;28;20040;-51
2023/03/15 03:04:32;;;;;;;0.63;0.05;;;;;;;1.94;100.00;100785.69;5044408;28;20048;-53
2023/03/15 03:06:57;;;;;;;0.10;0.10;;;;;;;1.94;100.00;100784.84;5040785;28;20067;-52
2023/03/15 03:09:23;;;;;;;0.15;0.00;;;;;;;1.86;100.00;100775.03;5049892;28;20067;-50
2023/03/15 03:11:48;;;;;;;0.00;0.00;;;;;;;1.76;100.00;100771.50;5046676;28;20382;-51
2023/03/15 03:14:14;;;;;;;0.20;0.00;;;;;;;1.70;100.00;100777.22;5051128;28;20045;-50
2023/03/15 03:16:41;;;;;;;0.03;0.03;;;;;;;1.74;100.00;100776.03;5049351;28;20516;-49
2023/03/15 03:19:06;;;;;;;0.13;0.00;;;;;;;1.76;100.00;100781.97;5051164;28;20047;-54
2023/03/15 03:21:32;;;;;;;0.10;0.00;;;;;;;1.78;100.00;100779.22;5050547;28;20425;-54
2023/03/15 03:23:57;;;;;;;0.32;0.10;;;;;;;1.73;100.00;100777.81;5049334;28;20056;-50
2023/03/15 03:26:26;;;;;;;0.22;0.08;;;;;;;1.77;100.00;100790.63;5057692;28;20028;-51
2023/03/15 03:28:53;;;;;;;0.38;0.00;;;;;;;1.71;100.00;100800.66;5049054;28;20029;-50
2023/03/15 03:31:22;;;;;;;0.32;0.10;;;;;;;1.73;100.00;100795.31;5048014;28;20457;-52
2023/03/15 03:33:48;;;;;;;0.82;0.00;;;;;;;1.41;100.00;100792.69;5051283;28;20496;-52
2023/03/15 03:36:13;;;;;;;0.00;0.00;;;;;;;1.30;100.00;100802.22;5060333;28;20117;-52
2023/03/15 03:38:44;;;;;;;0.63;0.10;;;;;;;1.25;100.00;100808.75;5046829;28;20386;-49
2023/03/15 03:41:10;;;;;;;6.35;0.30;;;;;;;1.25;100.00;100822.66;5050321;28;20031;-52
2023/03/15 03:43:36;;;;;;;0.70;0.10;;;;;;;1.20;100.00;100822.19;5044022;28;20493;-51
2023/03/15 03:46:02;;;;;;;0.93;0.00;;;;;;;1.21;100.00;100828.22;5050144;28;20035;-51
2023/03/15 03:48:28;;;;;;;0.98;0.08;;;;;;;1.16;100.00;100819.94;5044081;28;20035;-48
2023/03/15 03:50:53;;;;;;;0.08;0.00;;;;;;;1.11;100.00;100835.13;5046947;28;20117;-55
2023/03/15 03:53:18;;;;;;;0.13;0.03;;;;;;;1.11;100.00;100836.00;5049118;28;20488;-48
2023/03/15 03:55:45;;;;;;;0.73;0.10;;;;;;;1.09;100.00;100840.50;5044334;28;20119;-53
2023/03/15 03:58:10;;;;;;;0.22;0.10;;;;;;;1.05;100.00;100839.06;5049915;28;20067;-53
2023/03/15 04:00:36;;;;;;;0.10;0.10;;;;;;;0.99;100.00;100835.16;5049448;28;20115;-54
2023/03/15 04:03:03;;;;;;;0.98;0.03;;;;;;;1.05;100.00;100829.44;5041903;28;20466;-53
2023/03/15 04:05:28;;;;;;;0.70;0.10;;;;;;;1.06;100.00;100825.91;5044797;28;20029;-50
2023/03/15 04:07:54;;;;;;;3.92;0.10;;;;;;;1.09;100.00;100840.50;5040651;28;20462;-50
2023/03/15 04:10:25;;;;;;;0.00;0.00;;;;;;;1.08;100.00;100838.81;5050173;28;20043;-50
2023/03/15 04:12:52;;;;;;;0.65;0.10;;;;;;;1.06;100.00;100831.13;5046092;28;20036;-54
2023/03/15 04:15:18;;;;;;;0.45;0.20;;;;;;;0.93;100.00;100830.44;5045517;28;20029;-47
2023/03/15 04:17:43;;;;;;;0.30;0.20;;;;;;;0.77;100.00;100825.53;5048451;28;20036;-51
2023/03/15 04:20:11;;;;;;;0.68;0.30;;;;;;;0.74;100.00;100828.41;5046473;28;20025;-50
2023/03/15 04:22:37;;;;;;;0.10;0.08;;;;;;;0.73;100.00;100826.75;5047273;28;20047;-54
2023/03/15 04:25:03;;;;;;;0.10;0.10;;;;;;;0.72;100.00;100829.47;5052364;28;20387;-52
2023/03/15 04:27:29;;;;;;;0.82;0.10;;;;;;;0.78;100.00;100829.84;5042054;28;20040;-51
2023/03/15 04:29:54;;;;;;;0.45;0.10;;;;;;;0.76;100.00;100825.69;5043130;28;20033;-48
2023/03/15 04:32:19;;;;;;;0.77;0.00;;;;;;;0.73;100.00;100833.75;5051387;28;20044;-50
2023/03/15 04:34:50;;;;;;;2.38;0.38;;;;;;;0.60;100.00;100823.44;5052422;28;20043;-51
2023/03/15 04:37:16;;;;;;;0.20;0.10;;;;;;;0.61;100.00;100825.91;5046034;28;20159;-49
2023/03/15 04:39:41;;;;;;;0.65;0.05;;;;;;;0.59;100.00;100822.56;5046389;28;20087;-51
2023/03/15 04:42:07;;;;;;;0.68;0.38;;;;;;;0.57;100.00;100823.69;5052157;28;20021;-50
2023/03/15 04:44:32;;;;;;;0.10;0.10;;;;;;;0.55;100.00;100841.22;5045319;28;20037;-54
2023/03/15 04:46:58;;;;;;;0.47;0.28;;;;;;;0.52;100.00;100839.69;5053307;28;20039;-52
2023/03/15 04:49:23;;;;;;;0.30;0.10;;;;;;;0.49;100.00;100842.53;5042209;28;20029;-50
2023/03/15 04:51:48;;;;;;;0.13;0.00;;;;;;;0.45;100.00;100837.66;5041636;28;20529;-52
2023/03/15 04:54:14;;;;;;;2.10;0.20;;;;;;;0.39;100.00;100846.78;5045705;28;20155;-52
2023/03/15 04:56:40;;;;;;;2.92;0.10;;;;;;;0.30;100.00;100842.25;5056532;28;20056;-54
2023/03/15 04:59:09;;;;;;;0.25;0.25;;;;;;;0.27;100.00;100837.25;5041304;28;20103;-50
2023/03/15 05:01:34;;;;;;;0.80;0.40;;;;;;;0.34;100.00;100828.03;5054952;28;20071;-50
2023/03/15 05:04:00;;;;;;;0.40;0.10;;;;;;;0.37;100.00;100827.81;5048138;28;20040;-52
2023/03/15 05:06:25;;;;;;;3.72;0.13;;;;;;;0.29;100.00;100831.00;5048684;28;20087;-50
2023/03/15 05:08:51;;;;;;;0.10;0.00;;;;;;;0.20;100.00;100837.72;5048735;28;21022;-48
2023/03/15 05:11:16;;;;;;;0.10;0.10;;;;;;;0.21;100.00;100842.00;5050031;28;20100;-54
2023/03/15 05:13:41;;;;;;;2.40;0.22;;;;;;;0.24;100.00;100837.50;5052023;28;20115;-52
2023/03/15 05:16:07;;;;;;;3.03;0.03;;;;;;;0.24;100.00;100847.94;5050386;28;20040;-52
2023/03/15 05:18:32;;;;;;;0.17;0.10;;;;;;;0.22;100.00;100854.06;5053780;28;20298;-53
2023/03/15 05:20:58;;;;;;;1.27;0.20;;;;;;;0.21;100.00;100849.81;5048172;28;20063;-51
2023/03/15 05:23:23;;;;;;;0.95;0.13;;;;;;;0.20;100.00;100858.56;5043835;28;20087;-52
2023/03/15 05:25:53;;;;;;;0.20;0.17;;;;;;;0.13;100.00;100851.31;5050562;28;20068;-52
2023/03/15 05:28:20;;;;;;;1.65;0.30;;;;;;;0.19;100.00;100858.72;5051373;28;20033;-52
2023/03/15 05:30:46;;;;;;;4.38;0.30;;;;;;;0.26;100.00;100851.22;5053464;28;20366;-48
2023/03/15 05:33:11;;;;;;;0.30;0.28;;;;;;;0.32;100.00;100862.06;5048585;28;20025;-53
2023/03/15 05:35:36;;;;;;;0.22;0.22;;;;;;;0.31;100.00;100859.53;5047338;28;20044;-49
2023/03/15 05:38:03;;;;;;;4.57;0.60;;;;;;;0.29;100.00;100866.69;5050665;28;20032;-51
2023/03/15 05:40:29;;;;;;;0.20;0.20;;;;;;;0.28;100.00;100857.16;5047495;28;20478;-52
2023/03/15 05:42:55;;;;;;;2.47;0.30;;;;;;;0.23;100.00;100857.50;5043777;28;20462;-52
2023/03/15 05:45:21;;;;;;;0.85;0.82;;;;;;;0.20;100.00;100861.19;5041982;28;20264;-55
2023/03/15 05:47:46;;;;;;;2.10;0.30;;;;;;;0.17;100.00;100866.63;5046269;28;20033;-49
2023/03/15 05:50:11;;;;;;;0.65;0.28;;;;;;;0.20;100.00;100873.41;5045470;28;20033;-52
2023/03/15 05:52:37;;;;;;;0.73;0.30;;;;;;;0.17;100.00;100865.81;5044505;28;20040;-50
2023/03/15 05:55:02;;;;;;;0.82;0.38;;;;;;;0.16;100.00;100867.59;5047044;28;20115;-54
2023/03/15 05:57:27;;;;;;;0.95;0.10;;;;;;;0.17;100.00;100865.81;5048804;28;20107;-50
2023/03/15 05:59:53;;;;;;;0.75;0.35;;;;;;;0.14;100.00;100868.66;5047369;28;20564;-50
2023/03/15 06:02:18;;;;;;;0.70;0.00;;;;;;;0.06;100.00;100874.44;5051347;28;20044;-50
2023/03/15 06:04:43;;;;;;;0.80;0.55;;;;;;;0.01;100.00;100871.34;5046681;28;20039;-50
2023/03/15 06:07:09;;;;;;;0.57;0.57;;;;;;;0.09;100.00;100882.03;5049105;28;20029;-49
2023/03/15 06:09:35;;;;;;;0.80;0.52;;;;;;;0.10;100.00;100886.28;5046063;28;20028;-53
2023/03/15 06:12:00;;;;;;;0.57;0.38;;;;;;;0.14;100.00;100892.13;5050781;28;20087;-49
2023/03/15 06:14:26;;;;;;;1.60;0.30;;;;;;;0.18;100.00;100896.13;5036781;28;20057;-51
2023/03/15 06:16:51;;;;;;;0.70;0.30;;;;;;;0.20;100.00;100897.69;5047412;28;20029;-50
2023/03/15 06:19:17;;;;;;;0.50;0.28;;;;;;;0.22;100.00;100893.19;5043263;28;20048;-52
2023/03/15 06:21:42;;;;;;;1.00;0.13;;;;;;;0.22;100.00;100893.19;5053496;28;20040;-49
2023/03/15 06:24:08;;;;;;;1.55;0.30;;;;;;;0.22;100.00;100893.19;5046828;28;20048;-53
2023/03/15 06:26:33;;;;;;;2.92;0.70;;;;;;;0.20;100.00;100892.47;5050756;28;20527;-53
2023/03/15 06:28:59;;;;;;;2.70;0.60;;;;;;;0.15;100.00;100896.38;5053383;28;20503;-53
2023/03/15 06:31:24;;;;;;;2.45;0.38;;;;;;;0.18;100.00;100897.00;5050717;28;20040;-51
2023/03/15 06:33:50;;;;;;;3.10;0.82;;;;;;;0.28;100.00;100893.69;5043660;28;20078;-50
2023/03/15 06:36:15;;;;;;;0.75;0.22;;;;;;;0.37;100.00;100899.06;5046196;28;20037;-48
2023/03/15 06:38:41;;;;;;;0.00;0.00;;;;;;;0.43;100.00;100898.59;5057279;28;20109;-53
2023/03/15 06:41:07;;;;;;;3.60;0.20;;;;;;;0.47;100.00;100893.16;5050828;28;20029;-49
2023/03/15 06:43:33;;;;;;;1.02;0.52;;;;;;;0.49;100.00;100899.06;5042898;28;20187;-48
2023/03/15 06:45:58;;;;;;;0.60;0.30;;;;;;;0.52;100.00;100899.69;5055530;28;20214;-52
2023/03/15 06:48:25;;;;;;;2.22;0.82;;;;;;;0.53;100.00;100901.34;5045895;28;20533;-50
2023/03/15 06:50:50;;;;;;;2.00;0.52;;;;;;;0.52;100.00;100898.88;5042032;28;20116;-50
2023/03/15 06:53:16;;;;;;;1.48;0.65;;;;;;;0.53;100.00;100905.75;5047163;28;20032;-54
2023/03/15 06:55:42;;;;;;;0.38;0.38;;;;;;;0.62;100.00;100902.41;5048402;28;20034;-54
2023/03/15 06:58:07;;;;;;;1.25;0.50;;;;;;;0.68;100.00;100903.75;5045064;28;20035;-51
2023/03/15 07:00:33;;;;;;;6.65;0.65;;;;;;;0.74;100.00;100914.53;5051603;28;20075;-50
2023/03/15 07:02:58;;;;;;;1.30;0.30;;;;;;;0.79;100.00;100916.81;5050308;28;20296;-49
2023/03/15 07:05:23;;;;;;;1.55;0.52;;;;;;;0.85;100.00;100917.19;5038409;28;20029;-51
2023/03/15 07:07:49;;;;;;;2.05;0.68;;;;;;;0.90;100.00;100927.25;5038987;28;20033;-51
2023/03/15 07:10:14;;;;;;;0.90;0.35;;;;;;;0.89;100.00;100923.00;5042445;28;20385;-52
2023/03/15 07:12:41;;;;;;;1.25;0.73;;;;;;;1.00;100.00;100925.59;5041176;28;20029;-52
2023/03/15 07:15:07;;;;;;;0.70;0.70;;;;;;;1.11;100.00;100937.00;5048664;28;20416;-53
2023/03/15 07:17:33;;;;;;;0.85;0.60;;;;;;;1.22;100.00;100934.41;5048138;28;20119;-54
2023/03/15 07:19:58;;;;;;;1.23;0.50;;;;;;;1.33;100.00;100937.00;5046626;28;20068;-50
2023/03/15 07:22:25;;;;;;;1.63;0.47;;;;;;;1.38;100.00;100934.84;5048102;28;20025;-50
2023/03/15 07:24:51;;;;;;;6.65;0.77;;;;;;;1.54;100.00;100942.31;5052497;28;20128;-53
2023/03/15 07:27:16;;;;;;;1.15;0.65;;;;;;;1.56;100.00;100937.81;5040280;28;20107;-48
2023/03/15 07:29:41;;;;;;;1.85;0.88;;;;;;;1.64;100.00;100939.81;5046296;28;20047;-50
2023/03/15 07:32:06;;;;;;;2.45;1.30;;;;;;;1.87;100.00;100941.41;5042595;28;20107;-51
2023/03/15 07:34:32;;;;;;;2.58;0.55;;;;;;;2.06;100.00;100945.16;5050397;28;20064;-51
2023/03/15 07:36:57;;;;;;;1.42;1.23;;;;;;;2.17;100.00;100951.19;5040217;28;20466;-53
2023/03/15 07:39:24;;;;;;;4.10;1.20;;;;;;;2.28;100.00;100947.69;5041596;28;20032;-54
2023/03/15 07:41:50;;;;;;;5.90;1.23;;;;;;;2.33;100.00;100948.16;5050258;28;20033;-48
2023/03/15 07:44:15;;;;;;;0.73;0.63;;;;;;;2.39;100.00;100946.81;5050351;28;20367;-48
2023/03/15 07:46:41;;;;;;;2.72;0.82;;;;;;;2.42;100.00;100943.94;5041573;28;20086;-48
2023/03/15 07:49:06;;;;;;;3.42;0.75;;;;;;;2.30;100.00;100935.31;5034297;28;20113;-52
2023/03/15 07:51:31;;;;;;;3.30;0.82;;;;;;;2.51;100.00;100939.75;5046547;28;20177;-53
2023/03/15 07:53:57;;;;;;;3.22;0.93;;;;;;;2.65;100.00;100933.34;5049712;28;20057;-52
2023/03/15 07:56:22;;;;;;;4.25;0.55;;;;;;;2.73;100.00;100929.13;5046643;28;20044;-50
2023/03/15 07:58:47;;;;;;;2.03;0.63;;;;;;;2.86;100.00;100922.84;5050479;28;20036;-54
2023/03/15 08:01:13;;;;;;;4.82;1.02;;;;;;;2.95;100.00;100927.31;5046515;28;20032;-49
2023/03/15 08:03:38;;;;;;;2.83;0.95;;;;;;;3.01;100.00;100934.66;5049487;28;20036;-50
2023/03/15 08:06:03;;;;;;;1.15;0.47;;;;;;;3.10;100.00;100936.50;5045126;28;20036;-48
2023/03/15 08:08:29;;;;;;;4.43;0.95;;;;;;;3.14;100.00;100932.63;5050361;28;20360;-50
2023/03/15 08:10:54;;;;;;;4.38;1.10;;;;;;;3.21;100.00;100927.69;5047951;28;20693;-50
2023/03/15 08:13:20;;;;;;;1.27;0.90;;;;;;;3.23;100.00;100928.41;5043072;28;20163;-52
2023/03/15 08:15:46;;;;;;;1.15;0.70;;;;;;;3.28;100.00;100934.09;5048358;28;20661;-55
2023/03/15 08:18:11;;;;;;;3.08;1.23;;;;;;;3.39;100.00;100938.38;5051450;28;20116;-52
2023/03/15 08:20:36;;;;;;;1.95;1.27;;;;;;;3.49;100.00;100932.22;5040826;28;20148;-55
2023/03/15 08:23:02;;;;;;;1.58;1.20;;;;;;;3.63;100.00;100932.78;5046256;28;20364;-52
2023/03/15 08:25:28;;;;;;;1.65;1.23;;;;;;;3.70;100.00;100936.53;5044284;28;20102;-50
2023/03/15 08:27:53;;;;;;;1.27;0.73;;;;;;;3.83;100.00;100941.53;5042942;28;20550;-51
2023/03/15 08:30:20;;;;;;;0.55;0.50;;;;;;;4.01;100.00;100942.50;5044263;28;20112;-50
2023/03/15 08:32:47;;;;;;;5.65;0.98;;;;;;;4.10;100.00;100941.66;5039495;28;20054;-49
2023/03/15 08:35:14;;;;;;;1.88;1.10;;;;;;;4.26;100.00;100935.91;5036392;28;20049;-48
2023/03/15 08:37:40;;;;;;;6.20;0.75;;;;;;;4.40;100.00;100937.25;5043165;28;21198;-48
2023/03/15 08:40:10;;;;;;;3.05;1.38;;;;;;;4.55;100.00;100942.91;5046686;28;20048;-47
2023/03/15 08:42:36;;;;;;;2.35;0.70;;;;;;;4.86;100.00;100938.28;5047276;28;20024;-47
2023/03/15 08:45:06;;;;;;;0.75;0.52;;;;;;;5.07;100.00;100937.25;5046034;28;20032;-49
2023/03/15 08:47:35;;;;;;;1.45;1.17;;;;;;;5.40;100.00;100936.69;5037664;28;20037;-48
2023/03/15 08:50:10;;;;;;;1.90;1.17;;;;;;;5.61;100.00;100933.00;5042753;28;20033;-52
2023/03/15 08:52:35;;;;;;;1.13;1.00;;;;;;;5.68;100.00;100929.63;5051763;28;20028;-51
2023/03/15 08:55:03;;;;;;;3.67;1.92;;;;;;;5.84;100.00;100928.13;5048186;28;20083;-51
2023/03/15 08:57:31;;;;;;;4.15;1.45;;;;;;;5.95;100.00;100932.38;5045865;28;20505;-51
2023/03/15 09:00:00;;;;;;;7.05;1.05;;;;;;;6.04;100.00;100923.56;5044519;28;20102;-47
2023/03/15 09:02:27;;;;;;;4.40;1.60;;;;;;;6.13;100.00;100930.56;5045862;28;20028;-51
2023/03/15 09:04:52;;;;;;;1.45;1.23;;;;;;;6.29;100.00;100935.97;5037247;28;20033;-51
2023/03/15 09:07:17;;;;;;;3.25;1.10;;;;;;;6.43;100.00;100924.09;5044398;28;20045;-48
2023/03/15 09:09:46;;;;;;;0.85;0.82;;;;;;;6.52;100.00;100928.41;5035813;28;20065;-49
2023/03/15 09:12:16;;;;;;;1.67;1.10;;;;;;;6.62;100.00;100930.97;5043889;28;20044;-51
2023/03/15 09:14:41;;;;;;;1.02;0.80;;;;;;;6.70;100.00;100936.28;5048110;28;20040;-51
2023/03/15 09:17:07;;;;;;;2.15;1.05;;;;;;;6.82;100.00;100928.16;5038998;28;20067;-54
2023/03/15 09:19:32;;;;;;;1.55;0.90;;;;;;;6.77;100.00;100936.50;5048041;28;20430;-50
2023/03/15 09:21:58;;;;;;;2.33;0.55;;;;;;;6.96;100.00;100941.56;5041828;28;20029;-54
2023/03/15 09:24:23;;;;;;;1.15;0.70;;;;;;;7.08;100.00;100930.75;5023531;28;20483;-49
2023/03/15 09:26:48;;;;;;;4.70;0.80;;;;;;;7.14;100.00;100927.47;5025083;28;20032;-53
2023/03/15 09:29:14;;;;;;;3.58;0.45;;;;;;;7.13;100.00;100925.84;5028499;28;20554;-50
2023/03/15 09:31:39;;;;;;;1.08;0.70;;;;;;;7.11;100.00;100928.63;5029688;28;20044;-53
2023/03/15 09:34:04;;;;;;;1.65;0.57;;;;;;;7.33;100.00;100935.16;5020033;28;20024;-50
2023/03/15 09:36:31;;;;;;;1.20;0.40;;;;;;;7.46;100.00;100931.22;5024208;28;20324;-48
2023/03/15 09:38:56;;;;;;;1.30;1.08;;;;;;;7.47;100.00;100932.91;5017967;28;20045;-48
2023/03/15 09:41:44;;;;;;;1.33;0.52;;;;;;;7.51;100.00;100934.22;5026428;28;20049;-52
2023/03/15 09:44:30;;;;;;;1.05;0.60;;;;;;;7.50;100.00;100933.41;5021762;28;20100;-50
2023/03/15 09:47:11;;;;;;;2.72;1.27;;;;;;;7.48;100.00;100935.34;5018070;28;20472;-51
2023/03/15 09:49:42;;;;;;;2.30;1.05;;;;;;;7.43;100.00;100932.38;5018451;28;20044;-50
2023/03/15 09:52:23;;;;;;;3.75;1.23;;;;;;;7.35;100.00;100937.63;5017305;28;20112;-50
2023/03/15 09:54:56;;;;;;;2.83;1.20;;;;;;;7.46;100.00;100933.88;5021769;28;20152;-50
2023/03/15 09:57:30;;;;;;;1.90;1.02;;;;;;;7.47;100.00;100946.09;5018976;28;20221;-48
2023/03/15 09:59:59;;;;;;;1.63;1.02;;;;;;;7.68;100.00;100946.47;5026587;28;20494;-49
2023/03/15 10:02:29;;;;;;;1.77;1.08;;;;;;;7.80;100.00;100949.66;5022977;28;20040;-52
2023/03/15 10:05:02;;;;;;;1.27;1.05;;;;;;;7.86;100.00;100949.81;5019087;28;20118;-51
2023/03/15 10:07:28;;;;;;;3.30;1.85;;;;;;;8.03;100.00;100945.41;5020529;28;21040;-48
2023/03/15 10:09:57;;;;;;;1.55;0.85;;;;;;;7.83;100.00;100952.78;5019331;28;20139;-53
2023/03/15 10:12:29;;;;;;;4.88;1.08;;;;;;;7.99;100.00;100953.81;5022603;28;20429;-49
2023/03/15 10:15:03;;;;;;;3.25;1.85;;;;;;;8.17;100.00;100951.88;5020098;28;20131;-51
2023/03/15 10:17:43;;;;;;;1.73;0.82;;;;;;;8.18;100.00;100944.75;5019657;28;20047;-50
2023/03/15 10:20:17;;;;;;;3.20;1.92;;;;;;;8.28;100.00;100940.97;5016822;28;20435;-54
2023/03/15 10:22:59;;;;;;;3.10;1.65;;;;;;;8.30;100.00;100938.97;5016288;28;20041;-50
2023/03/15 10:25:29;;;;;;;5.68;1.42;;;;;;;8.60;100.00;100947.28;5019057;28;20229;-53
2023/03/15 10:28:00;;;;;;;1.75;0.80;;;;;;;8.73;100.00;100944.13;5017549;28;20688;-50
2023/03/15 10:30:32;;;;;;;1.15;0.70;;;;;;;8.84;100.00;100949.06;5020248;28;20171;-50
2023/03/15 10:33:26;;;;;;;0.90;0.82;;;;;;;8.94;100.00;100960.28;5022012;28;20065;-49
2023/03/15 10:35:52;;;;;;;3.58;1.05;;;;;;;8.88;100.00;100958.31;5015205;28;20040;-52
2023/03/15 10:38:21;;;;;;;4.03;0.85;;;;;;;8.70;100.00;100955.03;5018424;28;20044;-53
2023/03/15 10:40:53;;;;;;;4.40;0.45;;;;;;;8.59;100.00;100958.00;5016728;28;20068;-54
2023/03/15 10:43:28;;;;;;;0.85;0.68;;;;;;;8.85;100.00;100955.16;5020567;28;20517;-52
2023/03/15 10:46:10;;;;;;;1.95;0.85;;;;;;;9.03;100.00;100949.69;5020544;28;20037;-49
2023/03/15 10:48:52;;;;;;;0.43;0.32;;;;;;;9.04;100.00;100949.53;5015503;28;20026;-51
2023/03/15 10:51:31;;;;;;;3.00;1.17;;;;;;;9.09;100.00;100947.19;5019203;28;20428;-52
2023/03/15 10:54:12;;;;;;;0.30;0.20;;;;;;;9.07;100.00;100949.19;5020615;28;20135;-51
2023/03/15 10:56:45;;;;;;;8.50;0.50;;;;;;;9.15;100.00;100948.31;5023282;28;20060;-50
2023/03/15 10:59:20;;;;;;;1.10;0.57;;;;;;;9.25;100.00;100946.31;5017521;28;20057;-52
2023/03/15 11:01:48;;;;;;;3.55;0.52;;;;;;;9.21;100.00;100944.16;5018606;28;20308;-52
2023/03/15 11:04:25;;;;;;;0.55;0.30;;;;;;;9.24;100.00;100939.38;5018047;28;20284;-54
2023/03/15 11:06:57;;;;;;;0.65;0.40;;;;;;;9.22;100.00;100927.31;5026018;28;20433;-54
2023/03/15 11:09:25;;;;;;;3.78;0.10;;;;;;;9.35;100.00;100931.06;5016484;28;20588;-54
2023/03/15 11:11:59;;;;;;;1.90;0.82;;;;;;;9.51;100.00;100931.97;5017843;28;20033;-54
2023/03/15 11:14:43;;;;;;;1.30;0.20;;;;;;;9.51;100.00;100919.56;5020298;28;20452;-50
2023/03/15 11:17:21;;;;;;;9.27;1.95;;;;;;;9.45;100.00;100919.41;5013708;28;20514;-53
2023/03/15 11:19:59;;;;;;;2.38;0.30;;;;;;;9.49;100.00;100912.78;5018946;28;20517;-51
2023/03/15 11:22:25;;;;;;;1.38;0.20;;;;;;;9.57;100.00;100905.63;5028344;28;20033;-54
2023/03/15 11:24:53;;;;;;;3.00;1.23;;;;;;;9.64;100.00;100912.88;5019091;28;20162;-52
2023/03/15 11:27:21;;;;;;;2.40;0.50;;;;;;;9.79;100.00;100913.78;5019892;28;21274;-52